Startpagina
METAR-TAF:

METAR-TAF

Vliegvelden :

Chiclayo, Peru

breedte: 06-47S, lengte: 079-50W, hoogte: 29 m

Actueel weer

Dit bericht is 31 minuten geleden gemaakt, om 13:00 UTC
Wind 6 kt uit het zuiden
Temperatuur 19°C
Vochtigheid 78%
Druk 1014 hPa
Zicht 10 km of meer
geen wolken onder 1500 m en geen cumulonimbus

METAR: SPHI 051300Z 17006KT CAVOK 19/15 Q1014 RMK BIRD HAZARD RWY 19/01 PP000

Tijdstip: 08:31 (13:31 UTC)

Verwachting

Dit bericht is 2 uur en het 31 minuten geleden gemaakt, om 11:00 UTC
Verwachting geldig van 05 om 12 UTC tot 06 om 12 UTC
Wind 12 kt uit het zuiden
Zicht 10 km of meer
geen wolken onder 1500 m en geen cumulonimbus
Wijzigt naar
van 05 om 18 UTC tot 05 om 20 UTC
Wind 20 kt uit het zuiden
Wijzigt naar
van 06 om 00 UTC tot 06 om 02 UTC
Wind 10 kt uit het zuiden

TAF: SPHI 051100Z 0512/0612 18012KT CAVOK TX25/0519Z TN18/0611Z BECMG 0518/0520 19020KT BECMG 0600/0602 17010KT

Waarnemingen en weersverwachtingen van meer dan 4000 vliegvelden (METAR en TAF).

De beschikbare stations zijn de gele en rode punten op de kaart.

Ga met uw muis naar het station om de naam te zien.

Klik dan om waarnemingen en weersverwachtingen te zien.

kaart wijzigen: klik op de groene knoppen met een zwart kruis om in te zoomen, op de groene knop met een streepje om uit te zoomen of op de groene pijlen voor aangrenzende kaarten.


METAR-TAF: